sensor_id;sensor_type;location;lat;lon;timestamp;temperature;humidity
5924;DHT22;2987;50.884;14.818;2024-03-08T00:00:57;-0.80;99.90
5924;DHT22;2987;50.884;14.818;2024-03-08T00:03:23;-1.00;99.90
5924;DHT22;2987;50.884;14.818;2024-03-08T00:05:49;-0.80;99.90
5924;DHT22;2987;50.884;14.818;2024-03-08T00:08:15;-0.90;99.90
5924;DHT22;2987;50.884;14.818;2024-03-08T00:10:41;-1.30;99.90
5924;DHT22;2987;50.884;14.818;2024-03-08T00:13:08;-1.10;99.90
5924;DHT22;2987;50.884;14.818;2024-03-08T00:15:34;-1.00;99.90
5924;DHT22;2987;50.884;14.818;2024-03-08T00:18:00;-1.30;99.90
5924;DHT22;2987;50.884;14.818;2024-03-08T00:20:27;-1.10;99.90
5924;DHT22;2987;50.884;14.818;2024-03-08T00:22:53;-1.00;99.90
5924;DHT22;2987;50.884;14.818;2024-03-08T00:25:19;-1.30;99.90
5924;DHT22;2987;50.884;14.818;2024-03-08T00:27:45;-1.10;99.90
5924;DHT22;2987;50.884;14.818;2024-03-08T00:30:15;-1.00;99.90
5924;DHT22;2987;50.884;14.818;2024-03-08T00:32:41;-1.10;99.90
5924;DHT22;2987;50.884;14.818;2024-03-08T00:35:07;-1.00;99.90
5924;DHT22;2987;50.884;14.818;2024-03-08T00:37:34;-1.30;99.90
5924;DHT22;2987;50.884;14.818;2024-03-08T00:40:03;-1.20;99.90
5924;DHT22;2987;50.884;14.818;2024-03-08T00:42:29;-1.50;99.90
5924;DHT22;2987;50.884;14.818;2024-03-08T00:44:55;-1.20;99.90
5924;DHT22;2987;50.884;14.818;2024-03-08T00:47:21;-1.40;99.90
5924;DHT22;2987;50.884;14.818;2024-03-08T00:49:47;-1.40;99.90
5924;DHT22;2987;50.884;14.818;2024-03-08T00:52:14;-1.40;99.90
5924;DHT22;2987;50.884;14.818;2024-03-08T00:54:40;-1.40;99.90
5924;DHT22;2987;50.884;14.818;2024-03-08T00:57:07;-1.40;99.90
5924;DHT22;2987;50.884;14.818;2024-03-08T00:59:33;-1.40;99.90
5924;DHT22;2987;50.884;14.818;2024-03-08T01:02:00;-1.30;99.90
5924;DHT22;2987;50.884;14.818;2024-03-08T01:04:26;-1.20;99.90
5924;DHT22;2987;50.884;14.818;2024-03-08T01:06:56;-1.50;99.90
5924;DHT22;2987;50.884;14.818;2024-03-08T01:09:23;-1.70;99.90
5924;DHT22;2987;50.884;14.818;2024-03-08T01:11:49;-1.80;99.90
5924;DHT22;2987;50.884;14.818;2024-03-08T01:14:16;-1.50;99.90
5924;DHT22;2987;50.884;14.818;2024-03-08T01:16:42;-1.70;99.90
5924;DHT22;2987;50.884;14.818;2024-03-08T01:19:08;-1.70;99.90
5924;DHT22;2987;50.884;14.818;2024-03-08T01:21:34;-1.50;99.90
5924;DHT22;2987;50.884;14.818;2024-03-08T01:24:00;-1.90;99.90
5924;DHT22;2987;50.884;14.818;2024-03-08T01:26:26;-1.90;99.90
5924;DHT22;2987;50.884;14.818;2024-03-08T01:28:53;-1.90;99.90
5924;DHT22;2987;50.884;14.818;2024-03-08T01:31:19;-1.90;99.90
5924;DHT22;2987;50.884;14.818;2024-03-08T01:33:45;-1.90;99.90
5924;DHT22;2987;50.884;14.818;2024-03-08T01:36:11;-2.00;99.90
5924;DHT22;2987;50.884;14.818;2024-03-08T01:38:42;-1.70;99.90
5924;DHT22;2987;50.884;14.818;2024-03-08T01:41:08;-1.70;99.90
5924;DHT22;2987;50.884;14.818;2024-03-08T01:43:35;-1.70;99.90
5924;DHT22;2987;50.884;14.818;2024-03-08T01:46:01;-1.70;99.90
5924;DHT22;2987;50.884;14.818;2024-03-08T01:48:29;-2.00;99.90
5924;DHT22;2987;50.884;14.818;2024-03-08T01:50:59;-1.90;99.90
5924;DHT22;2987;50.884;14.818;2024-03-08T01:53:26;-1.90;99.90
5924;DHT22;2987;50.884;14.818;2024-03-08T01:55:56;-2.10;99.90
5924;DHT22;2987;50.884;14.818;2024-03-08T01:58:24;-2.20;99.90
5924;DHT22;2987;50.884;14.818;2024-03-08T02:00:50;-2.00;99.90
5924;DHT22;2987;50.884;14.818;2024-03-08T02:03:18;-1.90;99.90
5924;DHT22;2987;50.884;14.818;2024-03-08T02:05:45;-2.10;99.90
5924;DHT22;2987;50.884;14.818;2024-03-08T02:08:12;-2.20;99.90
5924;DHT22;2987;50.884;14.818;2024-03-08T02:10:41;-2.00;99.90
5924;DHT22;2987;50.884;14.818;2024-03-08T02:13:08;-1.90;99.90
5924;DHT22;2987;50.884;14.818;2024-03-08T02:15:55;-2.10;99.90
5924;DHT22;2987;50.884;14.818;2024-03-08T02:18:23;-2.20;99.90
5924;DHT22;2987;50.884;14.818;2024-03-08T02:20:54;-2.00;99.90
5924;DHT22;2987;50.884;14.818;2024-03-08T02:23:22;-1.90;99.90
5924;DHT22;2987;50.884;14.818;2024-03-08T02:25:48;-2.10;99.90
5924;DHT22;2987;50.884;14.818;2024-03-08T02:28:15;-2.30;99.90
5924;DHT22;2987;50.884;14.818;2024-03-08T02:30:42;-2.10;99.90
5924;DHT22;2987;50.884;14.818;2024-03-08T02:33:08;-2.40;99.90
5924;DHT22;2987;50.884;14.818;2024-03-08T02:35:37;-2.20;99.90
5924;DHT22;2987;50.884;14.818;2024-03-08T02:38:03;-2.10;99.90
5924;DHT22;2987;50.884;14.818;2024-03-08T02:40:30;-2.20;99.90
5924;DHT22;2987;50.884;14.818;2024-03-08T02:42:56;-2.20;99.90
5924;DHT22;2987;50.884;14.818;2024-03-08T02:45:22;-2.10;99.90
5924;DHT22;2987;50.884;14.818;2024-03-08T02:47:48;-2.30;99.90
5924;DHT22;2987;50.884;14.818;2024-03-08T02:50:17;-2.10;99.90
5924;DHT22;2987;50.884;14.818;2024-03-08T02:52:44;-2.20;99.90
5924;DHT22;2987;50.884;14.818;2024-03-08T02:55:12;-2.10;99.90
5924;DHT22;2987;50.884;14.818;2024-03-08T02:57:42;-2.20;99.90
5924;DHT22;2987;50.884;14.818;2024-03-08T03:00:13;-2.30;99.90
5924;DHT22;2987;50.884;14.818;2024-03-08T03:02:41;-2.50;99.90
5924;DHT22;2987;50.884;14.818;2024-03-08T03:05:08;-2.50;99.90
5924;DHT22;2987;50.884;14.818;2024-03-08T03:07:35;-2.40;99.90
5924;DHT22;2987;50.884;14.818;2024-03-08T03:10:02;-2.30;99.90
5924;DHT22;2987;50.884;14.818;2024-03-08T03:12:29;-2.40;99.90
5924;DHT22;2987;50.884;14.818;2024-03-08T03:14:56;-2.30;99.90
5924;DHT22;2987;50.884;14.818;2024-03-08T03:17:25;-2.40;99.90
5924;DHT22;2987;50.884;14.818;2024-03-08T03:19:52;-2.90;99.90
5924;DHT22;2987;50.884;14.818;2024-03-08T03:22:19;-2.80;99.90
5924;DHT22;2987;50.884;14.818;2024-03-08T03:24:46;-2.70;99.90
5924;DHT22;2987;50.884;14.818;2024-03-08T03:27:13;-2.80;99.90
5924;DHT22;2987;50.884;14.818;2024-03-08T03:29:42;-2.60;99.90
5924;DHT22;2987;50.884;14.818;2024-03-08T03:32:12;-2.90;99.90
5924;DHT22;2987;50.884;14.818;2024-03-08T03:34:40;-2.80;99.90
5924;DHT22;2987;50.884;14.818;2024-03-08T03:37:06;-2.50;99.90
5924;DHT22;2987;50.884;14.818;2024-03-08T03:39:39;-2.60;99.90
5924;DHT22;2987;50.884;14.818;2024-03-08T03:42:25;-2.90;99.90
5924;DHT22;2987;50.884;14.818;2024-03-08T03:44:52;-2.80;99.90
5924;DHT22;2987;50.884;14.818;2024-03-08T03:47:18;-2.60;99.90
5924;DHT22;2987;50.884;14.818;2024-03-08T03:49:45;-2.90;99.90
5924;DHT22;2987;50.884;14.818;2024-03-08T03:52:11;-2.80;99.90
5924;DHT22;2987;50.884;14.818;2024-03-08T03:54:37;-2.60;99.90
5924;DHT22;2987;50.884;14.818;2024-03-08T03:57:03;-2.50;99.90
5924;DHT22;2987;50.884;14.818;2024-03-08T03:59:30;-2.60;99.90
5924;DHT22;2987;50.884;14.818;2024-03-08T04:01:56;-2.50;99.90
5924;DHT22;2987;50.884;14.818;2024-03-08T04:04:22;-2.70;99.90
5924;DHT22;2987;50.884;14.818;2024-03-08T04:06:50;-2.80;99.90
5924;DHT22;2987;50.884;14.818;2024-03-08T04:09:17;-2.90;99.90
5924;DHT22;2987;50.884;14.818;2024-03-08T04:11:45;-3.00;99.90
5924;DHT22;2987;50.884;14.818;2024-03-08T04:14:11;-2.60;99.90
5924;DHT22;2987;50.884;14.818;2024-03-08T04:16:37;-3.00;99.90
5924;DHT22;2987;50.884;14.818;2024-03-08T04:19:04;-3.10;99.90
5924;DHT22;2987;50.884;14.818;2024-03-08T04:21:32;-2.90;99.90
5924;DHT22;2987;50.884;14.818;2024-03-08T04:23:59;-2.90;99.90
5924;DHT22;2987;50.884;14.818;2024-03-08T04:26:25;-3.00;99.90
5924;DHT22;2987;50.884;14.818;2024-03-08T04:28:51;-3.10;99.90
5924;DHT22;2987;50.884;14.818;2024-03-08T04:31:18;-2.90;99.90
5924;DHT22;2987;50.884;14.818;2024-03-08T04:33:44;-2.90;99.90
5924;DHT22;2987;50.884;14.818;2024-03-08T04:36:10;-3.00;99.90
5924;DHT22;2987;50.884;14.818;2024-03-08T04:38:42;-2.70;99.90
5924;DHT22;2987;50.884;14.818;2024-03-08T04:41:09;-3.10;99.90
5924;DHT22;2987;50.884;14.818;2024-03-08T04:43:35;-2.90;99.90
5924;DHT22;2987;50.884;14.818;2024-03-08T04:46:02;-2.90;99.90
5924;DHT22;2987;50.884;14.818;2024-03-08T04:48:29;-2.90;99.90
5924;DHT22;2987;50.884;14.818;2024-03-08T04:50:55;-2.80;99.90
5924;DHT22;2987;50.884;14.818;2024-03-08T04:53:22;-3.10;99.90
5924;DHT22;2987;50.884;14.818;2024-03-08T04:55:48;-3.10;99.90
5924;DHT22;2987;50.884;14.818;2024-03-08T04:58:15;-2.80;99.90
5924;DHT22;2987;50.884;14.818;2024-03-08T05:00:41;-3.30;99.90
5924;DHT22;2987;50.884;14.818;2024-03-08T05:03:07;-3.30;99.90
5924;DHT22;2987;50.884;14.818;2024-03-08T05:05:35;-3.30;99.90
5924;DHT22;2987;50.884;14.818;2024-03-08T05:08:02;-3.20;99.90
5924;DHT22;2987;50.884;14.818;2024-03-08T05:10:28;-3.30;99.90
5924;DHT22;2987;50.884;14.818;2024-03-08T05:12:55;-3.20;99.90
5924;DHT22;2987;50.884;14.818;2024-03-08T05:15:21;-3.30;99.90
5924;DHT22;2987;50.884;14.818;2024-03-08T05:17:47;-3.30;99.90
5924;DHT22;2987;50.884;14.818;2024-03-08T05:20:13;-3.30;99.90
5924;DHT22;2987;50.884;14.818;2024-03-08T05:22:39;-3.30;99.90
5924;DHT22;2987;50.884;14.818;2024-03-08T05:25:09;-3.30;99.90
5924;DHT22;2987;50.884;14.818;2024-03-08T05:27:36;-3.50;99.90
5924;DHT22;2987;50.884;14.818;2024-03-08T05:30:03;-3.30;99.90
5924;DHT22;2987;50.884;14.818;2024-03-08T05:32:30;-3.30;99.90
5924;DHT22;2987;50.884;14.818;2024-03-08T05:34:57;-3.30;99.90
5924;DHT22;2987;50.884;14.818;2024-03-08T05:37:24;-3.30;99.90
5924;DHT22;2987;50.884;14.818;2024-03-08T05:39:50;-3.20;99.90
5924;DHT22;2987;50.884;14.818;2024-03-08T05:42:16;-3.00;99.90
5924;DHT22;2987;50.884;14.818;2024-03-08T05:44:42;-3.30;99.90
5924;DHT22;2987;50.884;14.818;2024-03-08T05:47:09;-3.30;99.90
5924;DHT22;2987;50.884;14.818;2024-03-08T05:49:37;-3.30;99.90
5924;DHT22;2987;50.884;14.818;2024-03-08T05:52:05;-3.10;99.90
5924;DHT22;2987;50.884;14.818;2024-03-08T05:54:31;-2.90;99.90
5924;DHT22;2987;50.884;14.818;2024-03-08T05:56:59;-2.90;99.90
5924;DHT22;2987;50.884;14.818;2024-03-08T05:59:25;-2.80;99.90
5924;DHT22;2987;50.884;14.818;2024-03-08T06:01:51;-3.10;99.90
5924;DHT22;2987;50.884;14.818;2024-03-08T06:04:17;-2.80;99.90
5924;DHT22;2987;50.884;14.818;2024-03-08T06:06:44;-3.10;99.90
5924;DHT22;2987;50.884;14.818;2024-03-08T06:09:10;-3.10;99.90
5924;DHT22;2987;50.884;14.818;2024-03-08T06:11:42;-2.70;99.90
5924;DHT22;2987;50.884;14.818;2024-03-08T06:14:09;-2.70;99.90
5924;DHT22;2987;50.884;14.818;2024-03-08T06:16:35;-2.70;99.90
5924;DHT22;2987;50.884;14.818;2024-03-08T06:19:01;-2.50;99.90
5924;DHT22;2987;50.884;14.818;2024-03-08T06:21:28;-2.10;99.90
5924;DHT22;2987;50.884;14.818;2024-03-08T06:23:55;-2.20;99.90
5924;DHT22;2987;50.884;14.818;2024-03-08T06:26:26;-1.90;99.90
5924;DHT22;2987;50.884;14.818;2024-03-08T06:28:55;-1.70;99.90
5924;DHT22;2987;50.884;14.818;2024-03-08T06:31:22;-1.60;99.90
5924;DHT22;2987;50.884;14.818;2024-03-08T06:33:48;-1.10;99.90
5924;DHT22;2987;50.884;14.818;2024-03-08T06:36:20;-0.90;99.90
5924;DHT22;2987;50.884;14.818;2024-03-08T06:38:51;-0.70;99.90
5924;DHT22;2987;50.884;14.818;2024-03-08T06:41:17;-0.50;99.90
5924;DHT22;2987;50.884;14.818;2024-03-08T06:43:44;-0.50;99.90
5924;DHT22;2987;50.884;14.818;2024-03-08T06:46:11;-0.20;99.90
5924;DHT22;2987;50.884;14.818;2024-03-08T06:48:39;0.00;99.90
5924;DHT22;2987;50.884;14.818;2024-03-08T06:51:05;0.20;99.90
5924;DHT22;2987;50.884;14.818;2024-03-08T06:53:32;0.90;99.90
5924;DHT22;2987;50.884;14.818;2024-03-08T06:55:58;0.60;99.90
5924;DHT22;2987;50.884;14.818;2024-03-08T06:58:25;1.40;99.90
5924;DHT22;2987;50.884;14.818;2024-03-08T07:00:51;1.60;99.90
5924;DHT22;2987;50.884;14.818;2024-03-08T07:03:24;1.90;99.90
5924;DHT22;2987;50.884;14.818;2024-03-08T07:05:50;1.90;99.90
5924;DHT22;2987;50.884;14.818;2024-03-08T07:08:17;1.90;99.90
5924;DHT22;2987;50.884;14.818;2024-03-08T07:10:44;1.90;99.90
5924;DHT22;2987;50.884;14.818;2024-03-08T07:13:11;1.70;99.90
5924;DHT22;2987;50.884;14.818;2024-03-08T07:15:37;1.50;99.90
5924;DHT22;2987;50.884;14.818;2024-03-08T07:18:03;1.50;99.90
5924;DHT22;2987;50.884;14.818;2024-03-08T07:20:30;1.10;99.90
5924;DHT22;2987;50.884;14.818;2024-03-08T07:22:56;1.30;99.90
5924;DHT22;2987;50.884;14.818;2024-03-08T07:25:23;1.40;99.90
5924;DHT22;2987;50.884;14.818;2024-03-08T07:27:55;1.60;99.90
5924;DHT22;2987;50.884;14.818;2024-03-08T07:30:24;1.40;99.90
5924;DHT22;2987;50.884;14.818;2024-03-08T07:33:09;1.60;99.90
5924;DHT22;2987;50.884;14.818;2024-03-08T07:35:39;1.90;99.90
5924;DHT22;2987;50.884;14.818;2024-03-08T07:38:07;1.90;99.90
5924;DHT22;2987;50.884;14.818;2024-03-08T07:40:40;1.40;99.90
5924;DHT22;2987;50.884;14.818;2024-03-08T07:43:10;2.10;99.90
5924;DHT22;2987;50.884;14.818;2024-03-08T07:45:37;2.30;99.90
5924;DHT22;2987;50.884;14.818;2024-03-08T07:48:06;2.30;99.90
5924;DHT22;2987;50.884;14.818;2024-03-08T07:50:39;2.60;99.90
5924;DHT22;2987;50.884;14.818;2024-03-08T07:53:09;2.70;99.90
5924;DHT22;2987;50.884;14.818;2024-03-08T07:55:36;2.40;99.90
5924;DHT22;2987;50.884;14.818;2024-03-08T07:58:03;2.50;99.90
5924;DHT22;2987;50.884;14.818;2024-03-08T08:00:29;2.50;99.90
5924;DHT22;2987;50.884;14.818;2024-03-08T08:02:57;2.50;99.90
5924;DHT22;2987;50.884;14.818;2024-03-08T08:05:24;2.80;99.90
5924;DHT22;2987;50.884;14.818;2024-03-08T08:07:50;2.80;99.90
5924;DHT22;2987;50.884;14.818;2024-03-08T08:10:18;3.20;99.90
5924;DHT22;2987;50.884;14.818;2024-03-08T08:12:48;3.70;99.90
5924;DHT22;2987;50.884;14.818;2024-03-08T08:15:14;4.10;99.90
5924;DHT22;2987;50.884;14.818;2024-03-08T08:17:42;4.20;99.90
5924;DHT22;2987;50.884;14.818;2024-03-08T08:20:10;4.30;99.90
5924;DHT22;2987;50.884;14.818;2024-03-08T08:22:41;4.90;99.90
5924;DHT22;2987;50.884;14.818;2024-03-08T08:25:08;5.10;99.90
5924;DHT22;2987;50.884;14.818;2024-03-08T08:27:34;5.10;99.90
5924;DHT22;2987;50.884;14.818;2024-03-08T08:30:06;5.00;99.90
5924;DHT22;2987;50.884;14.818;2024-03-08T08:32:37;4.80;99.90
5924;DHT22;2987;50.884;14.818;2024-03-08T08:35:06;4.90;99.90
5924;DHT22;2987;50.884;14.818;2024-03-08T08:37:33;5.00;99.90
5924;DHT22;2987;50.884;14.818;2024-03-08T08:40:03;5.70;99.90
5924;DHT22;2987;50.884;14.818;2024-03-08T08:42:35;6.00;99.90
5924;DHT22;2987;50.884;14.818;2024-03-08T08:45:01;6.60;99.90
5924;DHT22;2987;50.884;14.818;2024-03-08T08:47:28;7.40;99.90
5924;DHT22;2987;50.884;14.818;2024-03-08T08:49:54;7.50;99.90
5924;DHT22;2987;50.884;14.818;2024-03-08T08:52:20;8.20;99.90
5924;DHT22;2987;50.884;14.818;2024-03-08T08:54:46;8.70;99.90
5924;DHT22;2987;50.884;14.818;2024-03-08T08:57:12;8.90;99.90
5924;DHT22;2987;50.884;14.818;2024-03-08T08:59:39;8.90;99.90
5924;DHT22;2987;50.884;14.818;2024-03-08T09:02:06;8.90;99.90
5924;DHT22;2987;50.884;14.818;2024-03-08T09:04:34;8.60;99.90
5924;DHT22;2987;50.884;14.818;2024-03-08T09:07:01;8.90;99.90
5924;DHT22;2987;50.884;14.818;2024-03-08T09:09:28;9.20;99.90
5924;DHT22;2987;50.884;14.818;2024-03-08T09:11:55;8.80;99.90
5924;DHT22;2987;50.884;14.818;2024-03-08T09:14:22;8.80;99.90
5924;DHT22;2987;50.884;14.818;2024-03-08T09:16:48;9.40;99.90
5924;DHT22;2987;50.884;14.818;2024-03-08T09:19:14;9.80;99.90
5924;DHT22;2987;50.884;14.818;2024-03-08T09:21:41;10.10;99.90
5924;DHT22;2987;50.884;14.818;2024-03-08T09:24:07;10.00;99.90
5924;DHT22;2987;50.884;14.818;2024-03-08T09:26:33;9.60;99.90
5924;DHT22;2987;50.884;14.818;2024-03-08T09:29:00;9.80;99.90
5924;DHT22;2987;50.884;14.818;2024-03-08T09:31:26;9.80;99.90
5924;DHT22;2987;50.884;14.818;2024-03-08T09:33:52;10.20;99.90
5924;DHT22;2987;50.884;14.818;2024-03-08T09:36:18;10.10;99.90
5924;DHT22;2987;50.884;14.818;2024-03-08T09:38:45;9.90;99.90
5924;DHT22;2987;50.884;14.818;2024-03-08T09:41:11;9.90;99.90
5924;DHT22;2987;50.884;14.818;2024-03-08T09:43:38;10.10;99.90
5924;DHT22;2987;50.884;14.818;2024-03-08T09:46:06;10.30;99.90
5924;DHT22;2987;50.884;14.818;2024-03-08T09:48:33;10.60;99.90
5924;DHT22;2987;50.884;14.818;2024-03-08T09:51:00;10.80;99.90
5924;DHT22;2987;50.884;14.818;2024-03-08T09:53:26;11.10;99.90
5924;DHT22;2987;50.884;14.818;2024-03-08T09:55:53;10.40;99.90
5924;DHT22;2987;50.884;14.818;2024-03-08T09:58:19;10.30;99.90
5924;DHT22;2987;50.884;14.818;2024-03-08T10:00:45;10.60;99.90
5924;DHT22;2987;50.884;14.818;2024-03-08T10:03:11;10.50;99.90
5924;DHT22;2987;50.884;14.818;2024-03-08T10:05:41;10.70;99.90
5924;DHT22;2987;50.884;14.818;2024-03-08T10:08:07;11.10;99.90
5924;DHT22;2987;50.884;14.818;2024-03-08T10:10:34;10.80;99.90
5924;DHT22;2987;50.884;14.818;2024-03-08T10:13:01;10.70;99.90
5924;DHT22;2987;50.884;14.818;2024-03-08T10:15:28;10.50;99.90
5924;DHT22;2987;50.884;14.818;2024-03-08T10:17:59;10.60;99.90
5924;DHT22;2987;50.884;14.818;2024-03-08T10:20:25;10.50;99.90
5924;DHT22;2987;50.884;14.818;2024-03-08T10:22:55;10.80;99.90
5924;DHT22;2987;50.884;14.818;2024-03-08T10:25:23;11.30;99.90
5924;DHT22;2987;50.884;14.818;2024-03-08T10:27:50;11.00;99.90
5924;DHT22;2987;50.884;14.818;2024-03-08T10:30:16;10.60;99.90
5924;DHT22;2987;50.884;14.818;2024-03-08T10:32:48;10.60;99.90
5924;DHT22;2987;50.884;14.818;2024-03-08T10:35:14;10.50;99.90
5924;DHT22;2987;50.884;14.818;2024-03-08T10:37:50;10.60;99.90
5924;DHT22;2987;50.884;14.818;2024-03-08T10:40:28;10.20;99.90
5924;DHT22;2987;50.884;14.818;2024-03-08T10:42:57;10.50;99.90
5924;DHT22;2987;50.884;14.818;2024-03-08T10:45:39;10.20;99.90
5924;DHT22;2987;50.884;14.818;2024-03-08T10:50:44;10.50;99.90
5924;DHT22;2987;50.884;14.818;2024-03-08T10:53:18;10.40;99.90
5924;DHT22;2987;50.884;14.818;2024-03-08T10:55:47;10.50;99.90
5924;DHT22;2987;50.884;14.818;2024-03-08T10:58:15;10.50;99.90
5924;DHT22;2987;50.884;14.818;2024-03-08T11:00:41;10.50;99.90
5924;DHT22;2987;50.884;14.818;2024-03-08T11:03:09;10.70;99.90
5924;DHT22;2987;50.884;14.818;2024-03-08T11:05:55;10.70;99.90
5924;DHT22;2987;50.884;14.818;2024-03-08T11:08:23;10.60;99.90
5924;DHT22;2987;50.884;14.818;2024-03-08T11:10:50;10.50;99.90
5924;DHT22;2987;50.884;14.818;2024-03-08T11:13:38;10.10;99.90
5924;DHT22;2987;50.884;14.818;2024-03-08T11:19:00;10.50;99.90
5924;DHT22;2987;50.884;14.818;2024-03-08T11:21:31;10.50;99.90
5924;DHT22;2987;50.884;14.818;2024-03-08T11:24:17;10.40;99.90
5924;DHT22;2987;50.884;14.818;2024-03-08T11:26:45;10.30;99.90
5924;DHT22;2987;50.884;14.818;2024-03-08T11:32:12;10.60;99.90
5924;DHT22;2987;50.884;14.818;2024-03-08T11:34:42;10.20;99.90
5924;DHT22;2987;50.884;14.818;2024-03-08T11:37:16;9.90;99.90
5924;DHT22;2987;50.884;14.818;2024-03-08T11:39:51;9.70;99.90
5924;DHT22;2987;50.884;14.818;2024-03-08T11:42:19;9.90;99.90
5924;DHT22;2987;50.884;14.818;2024-03-08T11:44:46;9.90;99.90
5924;DHT22;2987;50.884;14.818;2024-03-08T11:47:13;10.20;99.90
5924;DHT22;2987;50.884;14.818;2024-03-08T11:49:40;10.30;99.90
5924;DHT22;2987;50.884;14.818;2024-03-08T11:52:15;10.60;99.90
5924;DHT22;2987;50.884;14.818;2024-03-08T11:54:53;10.50;99.90
5924;DHT22;2987;50.884;14.818;2024-03-08T11:57:25;10.50;99.90
5924;DHT22;2987;50.884;14.818;2024-03-08T11:59:52;10.70;99.90
5924;DHT22;2987;50.884;14.818;2024-03-08T12:02:18;10.50;99.90
5924;DHT22;2987;50.884;14.818;2024-03-08T12:04:47;10.50;99.90
5924;DHT22;2987;50.884;14.818;2024-03-08T12:07:13;10.70;99.90
5924;DHT22;2987;50.884;14.818;2024-03-08T12:09:40;10.60;99.90
5924;DHT22;2987;50.884;14.818;2024-03-08T12:12:12;10.70;99.90
5924;DHT22;2987;50.884;14.818;2024-03-08T12:14:43;10.80;99.90
5924;DHT22;2987;50.884;14.818;2024-03-08T12:17:10;10.90;99.90
5924;DHT22;2987;50.884;14.818;2024-03-08T12:19:36;10.80;99.90
5924;DHT22;2987;50.884;14.818;2024-03-08T12:22:08;11.00;99.90
5924;DHT22;2987;50.884;14.818;2024-03-08T12:24:36;10.90;99.90
5924;DHT22;2987;50.884;14.818;2024-03-08T12:27:20;11.00;99.90
5924;DHT22;2987;50.884;14.818;2024-03-08T12:29:46;10.90;99.90
5924;DHT22;2987;50.884;14.818;2024-03-08T12:32:12;11.00;99.90
5924;DHT22;2987;50.884;14.818;2024-03-08T12:34:40;11.00;99.90
5924;DHT22;2987;50.884;14.818;2024-03-08T12:37:06;11.20;99.90
5924;DHT22;2987;50.884;14.818;2024-03-08T12:39:33;11.30;99.90
5924;DHT22;2987;50.884;14.818;2024-03-08T12:42:00;11.30;99.90
5924;DHT22;2987;50.884;14.818;2024-03-08T12:44:27;11.40;99.90
5924;DHT22;2987;50.884;14.818;2024-03-08T12:46:54;11.60;99.90
5924;DHT22;2987;50.884;14.818;2024-03-08T12:49:20;11.70;99.90
5924;DHT22;2987;50.884;14.818;2024-03-08T12:51:49;11.90;99.90
5924;DHT22;2987;50.884;14.818;2024-03-08T12:54:18;11.50;99.90
5924;DHT22;2987;50.884;14.818;2024-03-08T12:56:49;11.50;99.90
5924;DHT22;2987;50.884;14.818;2024-03-08T12:59:17;11.60;99.90
5924;DHT22;2987;50.884;14.818;2024-03-08T13:01:44;11.60;99.90
5924;DHT22;2987;50.884;14.818;2024-03-08T13:04:10;11.50;99.90
5924;DHT22;2987;50.884;14.818;2024-03-08T13:06:37;11.40;99.90
5924;DHT22;2987;50.884;14.818;2024-03-08T13:09:03;11.40;99.90
5924;DHT22;2987;50.884;14.818;2024-03-08T13:11:32;11.40;99.90
5924;DHT22;2987;50.884;14.818;2024-03-08T13:14:05;11.60;99.90
5924;DHT22;2987;50.884;14.818;2024-03-08T13:16:31;11.50;99.90
5924;DHT22;2987;50.884;14.818;2024-03-08T13:18:57;11.50;99.90
5924;DHT22;2987;50.884;14.818;2024-03-08T13:21:24;11.60;99.90
5924;DHT22;2987;50.884;14.818;2024-03-08T13:23:51;11.60;99.90
5924;DHT22;2987;50.884;14.818;2024-03-08T13:26:19;11.50;99.90
5924;DHT22;2987;50.884;14.818;2024-03-08T13:28:48;11.50;99.90
5924;DHT22;2987;50.884;14.818;2024-03-08T13:31:20;11.50;99.90
5924;DHT22;2987;50.884;14.818;2024-03-08T13:33:46;11.40;99.90
5924;DHT22;2987;50.884;14.818;2024-03-08T13:36:13;11.10;99.90
5924;DHT22;2987;50.884;14.818;2024-03-08T13:38:48;11.20;99.90
5924;DHT22;2987;50.884;14.818;2024-03-08T13:41:16;11.20;99.90
5924;DHT22;2987;50.884;14.818;2024-03-08T13:43:47;11.30;99.90
5924;DHT22;2987;50.884;14.818;2024-03-08T13:46:16;11.40;99.90
5924;DHT22;2987;50.884;14.818;2024-03-08T13:48:43;11.50;99.90
5924;DHT22;2987;50.884;14.818;2024-03-08T13:51:09;11.50;99.90
5924;DHT22;2987;50.884;14.818;2024-03-08T13:53:41;11.50;99.90
5924;DHT22;2987;50.884;14.818;2024-03-08T13:56:07;11.50;99.90
5924;DHT22;2987;50.884;14.818;2024-03-08T13:58:37;11.50;99.90
5924;DHT22;2987;50.884;14.818;2024-03-08T14:01:03;11.30;99.90
5924;DHT22;2987;50.884;14.818;2024-03-08T14:03:31;11.20;99.90
5924;DHT22;2987;50.884;14.818;2024-03-08T14:05:58;10.90;99.90
5924;DHT22;2987;50.884;14.818;2024-03-08T14:08:26;10.80;99.90
5924;DHT22;2987;50.884;14.818;2024-03-08T14:10:53;10.70;99.90
5924;DHT22;2987;50.884;14.818;2024-03-08T14:13:19;10.80;99.90
5924;DHT22;2987;50.884;14.818;2024-03-08T14:15:47;10.60;99.90
5924;DHT22;2987;50.884;14.818;2024-03-08T14:18:14;10.60;99.90
5924;DHT22;2987;50.884;14.818;2024-03-08T14:20:42;10.50;99.90
5924;DHT22;2987;50.884;14.818;2024-03-08T14:23:08;10.90;99.90
5924;DHT22;2987;50.884;14.818;2024-03-08T14:25:35;10.70;99.90
5924;DHT22;2987;50.884;14.818;2024-03-08T14:28:02;10.60;99.90
5924;DHT22;2987;50.884;14.818;2024-03-08T14:30:34;10.50;99.90
5924;DHT22;2987;50.884;14.818;2024-03-08T14:33:02;10.50;99.90
5924;DHT22;2987;50.884;14.818;2024-03-08T14:35:30;10.60;99.90
5924;DHT22;2987;50.884;14.818;2024-03-08T14:37:57;10.40;99.90
5924;DHT22;2987;50.884;14.818;2024-03-08T14:40:25;10.50;99.90
5924;DHT22;2987;50.884;14.818;2024-03-08T14:42:52;10.40;99.90
5924;DHT22;2987;50.884;14.818;2024-03-08T14:45:20;10.20;99.90
5924;DHT22;2987;50.884;14.818;2024-03-08T14:47:50;10.10;99.90
5924;DHT22;2987;50.884;14.818;2024-03-08T14:50:17;10.30;99.90
5924;DHT22;2987;50.884;14.818;2024-03-08T14:52:44;10.00;99.90
5924;DHT22;2987;50.884;14.818;2024-03-08T14:55:18;9.70;99.90
5924;DHT22;2987;50.884;14.818;2024-03-08T14:57:51;9.80;99.90
5924;DHT22;2987;50.884;14.818;2024-03-08T15:00:20;9.80;99.90
5924;DHT22;2987;50.884;14.818;2024-03-08T15:02:53;9.40;99.90
5924;DHT22;2987;50.884;14.818;2024-03-08T15:05:20;9.30;99.90
5924;DHT22;2987;50.884;14.818;2024-03-08T15:07:48;9.50;99.90
5924;DHT22;2987;50.884;14.818;2024-03-08T15:10:15;9.20;99.90
5924;DHT22;2987;50.884;14.818;2024-03-08T15:12:45;9.20;99.90
5924;DHT22;2987;50.884;14.818;2024-03-08T15:15:13;9.30;99.90
5924;DHT22;2987;50.884;14.818;2024-03-08T15:17:46;9.00;99.90
5924;DHT22;2987;50.884;14.818;2024-03-08T15:20:15;8.90;99.90
5924;DHT22;2987;50.884;14.818;2024-03-08T15:22:51;9.20;99.90
5924;DHT22;2987;50.884;14.818;2024-03-08T15:25:24;8.80;99.90
5924;DHT22;2987;50.884;14.818;2024-03-08T15:27:54;8.80;99.90
5924;DHT22;2987;50.884;14.818;2024-03-08T15:30:21;8.90;99.90
5924;DHT22;2987;50.884;14.818;2024-03-08T15:32:56;8.80;99.90
5924;DHT22;2987;50.884;14.818;2024-03-08T15:35:23;8.70;99.90
5924;DHT22;2987;50.884;14.818;2024-03-08T15:37:52;8.90;99.90
5924;DHT22;2987;50.884;14.818;2024-03-08T15:40:18;8.50;99.90
5924;DHT22;2987;50.884;14.818;2024-03-08T15:45:17;8.70;99.90
5924;DHT22;2987;50.884;14.818;2024-03-08T15:47:44;8.90;99.90
5924;DHT22;2987;50.884;14.818;2024-03-08T15:50:10;8.80;99.90
5924;DHT22;2987;50.884;14.818;2024-03-08T15:52:44;8.90;99.90
5924;DHT22;2987;50.884;14.818;2024-03-08T15:55:18;8.80;99.90
5924;DHT22;2987;50.884;14.818;2024-03-08T15:57:49;8.80;99.90
5924;DHT22;2987;50.884;14.818;2024-03-08T16:00:17;8.90;99.90
5924;DHT22;2987;50.884;14.818;2024-03-08T16:03:03;8.50;99.90
5924;DHT22;2987;50.884;14.818;2024-03-08T16:05:35;8.90;99.90